sensor_id;sensor_type;location;lat;lon;timestamp;pressure;altitude;pressure_sealevel;temperature;humidity
42887;BME280;29032;56.028;92.904;2023-03-31T00:04:30;100461.66;;;-5.31;39.17
42887;BME280;29032;56.028;92.904;2023-03-31T00:09:32;100463.22;;;-5.55;40.61
42887;BME280;29032;56.028;92.904;2023-03-31T00:14:34;100464.00;;;-5.54;40.38
42887;BME280;29032;56.028;92.904;2023-03-31T00:19:38;100460.13;;;-5.32;40.38
42887;BME280;29032;56.028;92.904;2023-03-31T00:24:40;100462.44;;;-5.27;40.03
42887;BME280;29032;56.028;92.904;2023-03-31T00:29:42;100473.28;;;-5.27;40.50
42887;BME280;29032;56.028;92.904;2023-03-31T00:34:46;100489.13;;;-5.15;40.09
42887;BME280;29032;56.028;92.904;2023-03-31T00:39:48;100493.75;;;-5.40;40.12
42887;BME280;29032;56.028;92.904;2023-03-31T00:45:25;100499.16;;;-5.33;40.10
42887;BME280;29032;56.028;92.904;2023-03-31T00:50:32;100502.63;;;-5.32;40.80
42887;BME280;29032;56.028;92.904;2023-03-31T00:55:40;100505.69;;;-4.95;39.87
42887;BME280;29032;56.028;92.904;2023-03-31T01:00:43;100518.09;;;-4.90;39.90
42887;BME280;29032;56.028;92.904;2023-03-31T01:05:49;100510.00;;;-5.01;40.71
42887;BME280;29032;56.028;92.904;2023-03-31T01:10:54;100517.25;;;-4.58;40.53
42887;BME280;29032;56.028;92.904;2023-03-31T01:15:57;100506.28;;;-4.16;39.79
42887;BME280;29032;56.028;92.904;2023-03-31T01:26:59;100520.09;;;-3.33;39.48
42887;BME280;29032;56.028;92.904;2023-03-31T01:32:26;100531.84;;;-2.95;37.98
42887;BME280;29032;56.028;92.904;2023-03-31T01:43:24;100532.75;;;-2.68;37.56
42887;BME280;29032;56.028;92.904;2023-03-31T01:48:34;100537.63;;;-2.52;38.50
42887;BME280;29032;56.028;92.904;2023-03-31T01:53:45;100548.19;;;-2.23;37.65
42887;BME280;29032;56.028;92.904;2023-03-31T01:58:53;100542.56;;;-2.05;37.30
42887;BME280;29032;56.028;92.904;2023-03-31T02:04:02;100556.47;;;-2.00;37.01
42887;BME280;29032;56.028;92.904;2023-03-31T02:09:09;100557.19;;;-1.96;37.45
42887;BME280;29032;56.028;92.904;2023-03-31T02:14:18;100556.91;;;-1.74;37.27
42887;BME280;29032;56.028;92.904;2023-03-31T02:19:23;100558.22;;;-1.56;36.85
42887;BME280;29032;56.028;92.904;2023-03-31T02:24:27;100560.22;;;-1.33;36.72
42887;BME280;29032;56.028;92.904;2023-03-31T02:29:34;100564.72;;;-1.22;35.63
42887;BME280;29032;56.028;92.904;2023-03-31T02:34:37;100561.13;;;-1.43;36.00
42887;BME280;29032;56.028;92.904;2023-03-31T02:39:40;100568.94;;;-1.72;36.46
42887;BME280;29032;56.028;92.904;2023-03-31T02:44:47;100572.84;;;-1.73;36.64
42887;BME280;29032;56.028;92.904;2023-03-31T02:49:52;100577.66;;;-1.57;35.69
42887;BME280;29032;56.028;92.904;2023-03-31T02:55:14;100575.03;;;-1.34;36.36
42887;BME280;29032;56.028;92.904;2023-03-31T03:00:23;100588.66;;;-1.34;35.54
42887;BME280;29032;56.028;92.904;2023-03-31T03:05:34;100588.25;;;-1.36;36.06
42887;BME280;29032;56.028;92.904;2023-03-31T03:11:04;100589.13;;;-1.15;35.51
42887;BME280;29032;56.028;92.904;2023-03-31T03:16:12;100597.19;;;-1.08;35.96
42887;BME280;29032;56.028;92.904;2023-03-31T03:21:16;100602.06;;;-1.19;35.25
42887;BME280;29032;56.028;92.904;2023-03-31T03:26:18;100603.69;;;-1.25;34.91
42887;BME280;29032;56.028;92.904;2023-03-31T03:31:22;100597.19;;;-1.08;35.45
42887;BME280;29032;56.028;92.904;2023-03-31T03:36:24;100601.13;;;-1.09;34.05
42887;BME280;29032;56.028;92.904;2023-03-31T03:41:26;100606.16;;;-1.35;34.46
42887;BME280;29032;56.028;92.904;2023-03-31T03:46:30;100605.44;;;-1.39;35.07
42887;BME280;29032;56.028;92.904;2023-03-31T03:51:32;100602.19;;;-1.30;34.07
42887;BME280;29032;56.028;92.904;2023-03-31T03:56:34;100607.94;;;-1.51;34.26
42887;BME280;29032;56.028;92.904;2023-03-31T04:01:38;100600.88;;;-2.10;35.21
42887;BME280;29032;56.028;92.904;2023-03-31T04:06:40;100589.13;;;-1.69;34.85
42887;BME280;29032;56.028;92.904;2023-03-31T04:11:42;100594.53;;;-1.39;34.37
42887;BME280;29032;56.028;92.904;2023-03-31T04:16:45;100588.66;;;-1.34;33.97
42887;BME280;29032;56.028;92.904;2023-03-31T04:21:47;100577.66;;;-1.26;33.49
42887;BME280;29032;56.028;92.904;2023-03-31T04:26:49;100583.97;;;-1.06;34.26
42887;BME280;29032;56.028;92.904;2023-03-31T04:31:53;100587.28;;;-0.95;34.14
42887;BME280;29032;56.028;92.904;2023-03-31T04:36:55;100577.56;;;-0.49;34.24
42887;BME280;29032;56.028;92.904;2023-03-31T04:41:58;100571.16;;;0.01;31.78
42887;BME280;29032;56.028;92.904;2023-03-31T04:47:02;100568.75;;;0.03;31.96
42887;BME280;29032;56.028;92.904;2023-03-31T04:52:04;100572.41;;;0.16;32.41
42887;BME280;29032;56.028;92.904;2023-03-31T04:57:06;100575.09;;;0.36;32.03
42887;BME280;29032;56.028;92.904;2023-03-31T05:02:10;100568.78;;;0.39;31.33
42887;BME280;29032;56.028;92.904;2023-03-31T05:07:12;100559.97;;;0.31;32.32
42887;BME280;29032;56.028;92.904;2023-03-31T05:12:14;100565.88;;;0.30;32.03
42887;BME280;29032;56.028;92.904;2023-03-31T05:17:18;100552.44;;;0.19;32.33
42887;BME280;29032;56.028;92.904;2023-03-31T05:22:20;100540.84;;;-0.05;32.29
42887;BME280;29032;56.028;92.904;2023-03-31T05:27:22;100546.94;;;0.03;32.20
42887;BME280;29032;56.028;92.904;2023-03-31T05:32:26;100554.31;;;0.42;33.25
42887;BME280;29032;56.028;92.904;2023-03-31T05:37:28;100548.25;;;0.67;33.22
42887;BME280;29032;56.028;92.904;2023-03-31T05:42:30;100550.59;;;0.85;32.79
42887;BME280;29032;56.028;92.904;2023-03-31T05:47:34;100553.91;;;1.09;32.94
42887;BME280;29032;56.028;92.904;2023-03-31T05:52:36;100562.63;;;1.20;32.37
42887;BME280;29032;56.028;92.904;2023-03-31T05:57:38;100565.41;;;0.15;34.77
42887;BME280;29032;56.028;92.904;2023-03-31T06:02:42;100559.03;;;-0.38;36.25
42887;BME280;29032;56.028;92.904;2023-03-31T06:07:44;100567.50;;;-0.32;36.41
42887;BME280;29032;56.028;92.904;2023-03-31T06:12:46;100560.22;;;-0.39;37.14
42887;BME280;29032;56.028;92.904;2023-03-31T06:17:49;100571.84;;;-0.58;38.21
42887;BME280;29032;56.028;92.904;2023-03-31T06:22:51;100566.16;;;-1.14;39.94
42887;BME280;29032;56.028;92.904;2023-03-31T06:27:53;100560.78;;;-1.18;41.14
42887;BME280;29032;56.028;92.904;2023-03-31T06:32:57;100557.19;;;-0.88;40.56
42887;BME280;29032;56.028;92.904;2023-03-31T06:37:59;100561.78;;;-0.61;41.15
42887;BME280;29032;56.028;92.904;2023-03-31T06:43:01;100575.63;;;-0.29;42.35
42887;BME280;29032;56.028;92.904;2023-03-31T06:48:05;100598.16;;;-0.05;42.02
42887;BME280;29032;56.028;92.904;2023-03-31T06:53:08;100588.00;;;-0.24;41.52
42887;BME280;29032;56.028;92.904;2023-03-31T06:58:10;100601.16;;;-0.62;41.88
42887;BME280;29032;56.028;92.904;2023-03-31T07:03:14;100606.34;;;-1.22;41.49
42887;BME280;29032;56.028;92.904;2023-03-31T07:08:16;100586.84;;;-1.74;43.99
42887;BME280;29032;56.028;92.904;2023-03-31T07:13:19;100600.72;;;-1.65;43.28
42887;BME280;29032;56.028;92.904;2023-03-31T07:18:22;100607.63;;;-1.57;42.12
42887;BME280;29032;56.028;92.904;2023-03-31T07:23:25;100613.03;;;-1.84;42.56
42887;BME280;29032;56.028;92.904;2023-03-31T07:28:27;100609.72;;;-1.68;43.02
42887;BME280;29032;56.028;92.904;2023-03-31T07:33:30;100607.00;;;-1.14;42.06
42887;BME280;29032;56.028;92.904;2023-03-31T07:38:33;100613.00;;;-0.73;39.30
42887;BME280;29032;56.028;92.904;2023-03-31T07:43:35;100609.44;;;-0.69;38.21
42887;BME280;29032;56.028;92.904;2023-03-31T07:48:38;100607.00;;;-0.87;38.61
42887;BME280;29032;56.028;92.904;2023-03-31T07:53:40;100606.56;;;-0.39;38.19
42887;BME280;29032;56.028;92.904;2023-03-31T07:58:43;100617.81;;;-0.13;36.12
42887;BME280;29032;56.028;92.904;2023-03-31T08:03:47;100619.97;;;-0.25;35.12
42887;BME280;29032;56.028;92.904;2023-03-31T08:08:49;100647.13;;;-0.41;36.71
42887;BME280;29032;56.028;92.904;2023-03-31T08:13:52;100641.50;;;-0.54;39.22
42887;BME280;29032;56.028;92.904;2023-03-31T08:18:55;100652.00;;;-0.29;37.65
42887;BME280;29032;56.028;92.904;2023-03-31T08:23:57;100653.84;;;-0.02;37.30
42887;BME280;29032;56.028;92.904;2023-03-31T08:29:00;100657.63;;;0.04;36.84
42887;BME280;29032;56.028;92.904;2023-03-31T08:34:03;100666.06;;;0.13;36.53
42887;BME280;29032;56.028;92.904;2023-03-31T08:39:05;100670.66;;;-0.27;38.70
42887;BME280;29032;56.028;92.904;2023-03-31T08:44:12;100671.69;;;-0.91;40.75
42887;BME280;29032;56.028;92.904;2023-03-31T08:49:18;100665.75;;;-1.40;41.01
42887;BME280;29032;56.028;92.904;2023-03-31T08:54:30;100683.47;;;-1.59;42.30
42887;BME280;29032;56.028;92.904;2023-03-31T08:59:33;100679.59;;;-1.96;44.63
42887;BME280;29032;56.028;92.904;2023-03-31T09:10:34;100704.81;;;-1.92;42.73
42887;BME280;29032;56.028;92.904;2023-03-31T09:15:41;100731.84;;;-2.15;45.45
42887;BME280;29032;56.028;92.904;2023-03-31T09:20:48;100721.56;;;-2.42;48.08
42887;BME280;29032;56.028;92.904;2023-03-31T09:25:54;100715.78;;;-2.44;47.59
42887;BME280;29032;56.028;92.904;2023-03-31T09:30:57;100728.47;;;-2.30;47.36
42887;BME280;29032;56.028;92.904;2023-03-31T09:36:00;100735.22;;;-2.00;46.04
42887;BME280;29032;56.028;92.904;2023-03-31T09:41:04;100739.44;;;-1.58;44.56
42887;BME280;29032;56.028;92.904;2023-03-31T09:46:14;100740.97;;;-1.19;44.13
42887;BME280;29032;56.028;92.904;2023-03-31T09:51:19;100760.91;;;-1.30;41.67
42887;BME280;29032;56.028;92.904;2023-03-31T09:56:44;100775.66;;;-2.06;42.33
42887;BME280;29032;56.028;92.904;2023-03-31T10:01:49;100794.91;;;-3.01;43.82
42887;BME280;29032;56.028;92.904;2023-03-31T10:06:51;100807.00;;;-3.19;45.66
42887;BME280;29032;56.028;92.904;2023-03-31T10:11:57;100814.81;;;-3.32;45.85
42887;BME280;29032;56.028;92.904;2023-03-31T10:17:03;100826.81;;;-3.33;46.42
42887;BME280;29032;56.028;92.904;2023-03-31T10:22:14;100818.56;;;-2.98;45.15
42887;BME280;29032;56.028;92.904;2023-03-31T10:27:22;100822.25;;;-2.56;44.13
42887;BME280;29032;56.028;92.904;2023-03-31T10:32:27;100831.50;;;-2.43;43.11
42887;BME280;29032;56.028;92.904;2023-03-31T10:37:30;100838.06;;;-2.36;43.04
42887;BME280;29032;56.028;92.904;2023-03-31T10:42:34;100849.91;;;-2.05;41.63
42887;BME280;29032;56.028;92.904;2023-03-31T10:47:38;100873.72;;;-2.27;40.86
42887;BME280;29032;56.028;92.904;2023-03-31T10:52:45;100872.25;;;-2.43;40.29
42887;BME280;29032;56.028;92.904;2023-03-31T10:57:54;100876.19;;;-2.47;40.89
42887;BME280;29032;56.028;92.904;2023-03-31T11:03:23;100893.97;;;-2.32;40.51
42887;BME280;29032;56.028;92.904;2023-03-31T11:08:42;100897.00;;;-2.19;40.36
42887;BME280;29032;56.028;92.904;2023-03-31T11:13:53;100898.41;;;-1.97;39.85
42887;BME280;29032;56.028;92.904;2023-03-31T11:19:07;100917.19;;;-2.17;38.46
42887;BME280;29032;56.028;92.904;2023-03-31T11:24:20;100935.94;;;-2.33;38.09
42887;BME280;29032;56.028;92.904;2023-03-31T11:29:33;100947.72;;;-2.75;37.98
42887;BME280;29032;56.028;92.904;2023-03-31T11:34:57;100960.94;;;-2.91;37.61
42887;BME280;29032;56.028;92.904;2023-03-31T11:40:21;100954.03;;;-3.17;37.76
42887;BME280;29032;56.028;92.904;2023-03-31T11:45:33;100967.22;;;-3.37;36.78
42887;BME280;29032;56.028;92.904;2023-03-31T11:50:36;100973.03;;;-3.53;35.79
42887;BME280;29032;56.028;92.904;2023-03-31T11:55:40;100982.69;;;-3.63;35.93
42887;BME280;29032;56.028;92.904;2023-03-31T12:00:47;100990.84;;;-3.63;35.27
42887;BME280;29032;56.028;92.904;2023-03-31T12:05:56;101006.25;;;-3.99;34.68
42887;BME280;29032;56.028;92.904;2023-03-31T12:11:01;100998.44;;;-4.22;35.44
42887;BME280;29032;56.028;92.904;2023-03-31T12:16:10;101014.41;;;-4.02;34.41
42887;BME280;29032;56.028;92.904;2023-03-31T12:21:13;101015.91;;;-4.09;33.88
42887;BME280;29032;56.028;92.904;2023-03-31T12:26:32;101043.03;;;-4.09;34.01
42887;BME280;29032;56.028;92.904;2023-03-31T12:31:39;101027.44;;;-4.29;33.42
42887;BME280;29032;56.028;92.904;2023-03-31T12:36:54;101040.56;;;-4.35;33.98
42887;BME280;29032;56.028;92.904;2023-03-31T12:42:12;101060.53;;;-4.61;34.44
42887;BME280;29032;56.028;92.904;2023-03-31T12:47:32;101060.53;;;-4.65;34.95
42887;BME280;29032;56.028;92.904;2023-03-31T12:52:44;101071.31;;;-4.72;33.94
42887;BME280;29032;56.028;92.904;2023-03-31T12:57:51;101075.09;;;-4.87;34.84
42887;BME280;29032;56.028;92.904;2023-03-31T13:08:55;101096.91;;;-4.66;34.66
42887;BME280;29032;56.028;92.904;2023-03-31T13:14:00;101106.22;;;-4.63;34.90
42887;BME280;29032;56.028;92.904;2023-03-31T13:19:03;101111.69;;;-4.52;35.23
42887;BME280;29032;56.028;92.904;2023-03-31T13:24:07;101120.38;;;-4.29;36.00
42887;BME280;29032;56.028;92.904;2023-03-31T13:29:19;101131.31;;;-4.11;36.15
42887;BME280;29032;56.028;92.904;2023-03-31T13:34:21;101127.41;;;-4.17;35.99
42887;BME280;29032;56.028;92.904;2023-03-31T13:39:43;101134.47;;;-4.02;35.49
42887;BME280;29032;56.028;92.904;2023-03-31T13:45:03;101136.00;;;-4.05;35.63
42887;BME280;29032;56.028;92.904;2023-03-31T13:50:35;101142.50;;;-4.20;34.61
42887;BME280;29032;56.028;92.904;2023-03-31T13:56:10;101147.94;;;-4.68;35.13
42887;BME280;29032;56.028;92.904;2023-03-31T14:06:53;101162.41;;;-4.97;35.99
42887;BME280;29032;56.028;92.904;2023-03-31T14:11:59;101154.66;;;-4.99;35.79
42887;BME280;29032;56.028;92.904;2023-03-31T14:17:02;101171.22;;;-5.04;36.91
42887;BME280;29032;56.028;92.904;2023-03-31T14:22:11;101173.50;;;-5.09;37.47
42887;BME280;29032;56.028;92.904;2023-03-31T14:27:29;101179.41;;;-5.00;37.53
42887;BME280;29032;56.028;92.904;2023-03-31T14:32:41;101182.97;;;-4.89;37.86
42887;BME280;29032;56.028;92.904;2023-03-31T14:37:47;101195.03;;;-4.83;38.69
42887;BME280;29032;56.028;92.904;2023-03-31T14:42:50;101198.38;;;-4.56;37.90
42887;BME280;29032;56.028;92.904;2023-03-31T14:47:54;101213.63;;;-4.37;38.19
42887;BME280;29032;56.028;92.904;2023-03-31T14:52:57;101215.06;;;-4.50;37.66
42887;BME280;29032;56.028;92.904;2023-03-31T14:58:01;101236.38;;;-4.49;38.13
42887;BME280;29032;56.028;92.904;2023-03-31T15:03:06;101228.41;;;-4.31;37.75
42887;BME280;29032;56.028;92.904;2023-03-31T15:08:12;101240.41;;;-4.25;37.76
42887;BME280;29032;56.028;92.904;2023-03-31T15:13:19;101209.66;;;-4.91;37.76
42887;BME280;29032;56.028;92.904;2023-03-31T15:18:25;101251.50;;;-4.85;38.67
42887;BME280;29032;56.028;92.904;2023-03-31T15:23:27;101264.06;;;-5.03;39.03
42887;BME280;29032;56.028;92.904;2023-03-31T15:28:35;101273.09;;;-4.92;39.21
42887;BME280;29032;56.028;92.904;2023-03-31T15:33:39;101283.25;;;-4.82;38.85
42887;BME280;29032;56.028;92.904;2023-03-31T15:38:42;101281.03;;;-4.73;38.57
42887;BME280;29032;56.028;92.904;2023-03-31T15:43:47;101297.38;;;-4.62;38.96
42887;BME280;29032;56.028;92.904;2023-03-31T15:48:51;101306.75;;;-4.56;37.92
42887;BME280;29032;56.028;92.904;2023-03-31T15:53:54;101310.47;;;-4.71;38.53
42887;BME280;29032;56.028;92.904;2023-03-31T15:58:59;101323.47;;;-4.84;38.26
42887;BME280;29032;56.028;92.904;2023-03-31T16:04:05;101327.25;;;-4.92;37.95
42887;BME280;29032;56.028;92.904;2023-03-31T16:09:08;101329.78;;;-5.06;38.33
42887;BME280;29032;56.028;92.904;2023-03-31T16:14:16;101339.06;;;-5.34;39.13
42887;BME280;29032;56.028;92.904;2023-03-31T16:19:24;101341.59;;;-5.18;39.09
42887;BME280;29032;56.028;92.904;2023-03-31T16:24:29;101352.47;;;-5.15;39.26
42887;BME280;29032;56.028;92.904;2023-03-31T16:29:34;101348.63;;;-5.13;39.25
42887;BME280;29032;56.028;92.904;2023-03-31T16:34:51;101363.50;;;-5.00;38.40
42887;BME280;29032;56.028;92.904;2023-03-31T16:39:54;101374.34;;;-5.27;39.16
42887;BME280;29032;56.028;92.904;2023-03-31T16:44:57;101366.06;;;-5.37;39.27
42887;BME280;29032;56.028;92.904;2023-03-31T16:49:59;101376.59;;;-5.32;38.94
42887;BME280;29032;56.028;92.904;2023-03-31T16:55:02;101391.94;;;-5.13;39.09
42887;BME280;29032;56.028;92.904;2023-03-31T17:00:06;101403.94;;;-5.11;38.93
42887;BME280;29032;56.028;92.904;2023-03-31T17:05:09;101408.13;;;-5.17;38.97
42887;BME280;29032;56.028;92.904;2023-03-31T17:10:11;101424.47;;;-5.10;39.22
42887;BME280;29032;56.028;92.904;2023-03-31T17:15:15;101430.78;;;-5.29;38.96
42887;BME280;29032;56.028;92.904;2023-03-31T17:20:17;101436.63;;;-5.23;40.29
42887;BME280;29032;56.028;92.904;2023-03-31T17:25:19;101430.53;;;-5.17;40.29
42887;BME280;29032;56.028;92.904;2023-03-31T17:30:23;101441.69;;;-5.22;39.95
42887;BME280;29032;56.028;92.904;2023-03-31T17:35:25;101448.38;;;-5.16;39.90
42887;BME280;29032;56.028;92.904;2023-03-31T17:40:27;101453.13;;;-5.32;40.48
42887;BME280;29032;56.028;92.904;2023-03-31T17:45:31;101465.00;;;-5.40;39.72
42887;BME280;29032;56.028;92.904;2023-03-31T17:50:33;101466.97;;;-5.60;38.05
42887;BME280;29032;56.028;92.904;2023-03-31T17:55:35;101478.19;;;-5.81;37.53
42887;BME280;29032;56.028;92.904;2023-03-31T18:00:39;101493.72;;;-5.78;37.12
42887;BME280;29032;56.028;92.904;2023-03-31T18:05:43;101466.22;;;-6.03;36.38
42887;BME280;29032;56.028;92.904;2023-03-31T18:10:48;101499.56;;;-5.95;37.52
42887;BME280;29032;56.028;92.904;2023-03-31T18:16:11;101506.19;;;-5.92;36.39
42887;BME280;29032;56.028;92.904;2023-03-31T18:21:14;101500.59;;;-5.80;35.78
42887;BME280;29032;56.028;92.904;2023-03-31T18:26:16;101509.22;;;-5.94;35.99
42887;BME280;29032;56.028;92.904;2023-03-31T18:31:39;101514.88;;;-6.03;35.88
42887;BME280;29032;56.028;92.904;2023-03-31T18:36:41;101506.44;;;-6.20;36.06
42887;BME280;29032;56.028;92.904;2023-03-31T18:42:03;101520.22;;;-6.06;35.26
42887;BME280;29032;56.028;92.904;2023-03-31T18:47:26;101522.97;;;-6.22;35.12
42887;BME280;29032;56.028;92.904;2023-03-31T18:52:28;101536.53;;;-6.38;35.49
42887;BME280;29032;56.028;92.904;2023-03-31T18:57:30;101527.94;;;-6.43;35.66
42887;BME280;29032;56.028;92.904;2023-03-31T19:02:34;101533.78;;;-6.22;35.57
42887;BME280;29032;56.028;92.904;2023-03-31T19:07:36;101541.25;;;-6.35;35.47
42887;BME280;29032;56.028;92.904;2023-03-31T19:12:38;101539.50;;;-6.43;35.90
42887;BME280;29032;56.028;92.904;2023-03-31T19:18:01;101551.34;;;-6.32;35.90
42887;BME280;29032;56.028;92.904;2023-03-31T19:23:23;101555.69;;;-6.08;35.34
42887;BME280;29032;56.028;92.904;2023-03-31T19:28:26;101568.00;;;-6.10;35.36
42887;BME280;29032;56.028;92.904;2023-03-31T19:33:30;101570.06;;;-6.04;35.54
42887;BME280;29032;56.028;92.904;2023-03-31T19:38:32;101571.06;;;-6.12;35.35
42887;BME280;29032;56.028;92.904;2023-03-31T19:43:35;101579.38;;;-6.20;35.17
42887;BME280;29032;56.028;92.904;2023-03-31T19:48:39;101582.41;;;-6.22;35.14
42887;BME280;29032;56.028;92.904;2023-03-31T19:53:41;101576.53;;;-6.28;35.62
42887;BME280;29032;56.028;92.904;2023-03-31T19:58:44;101591.97;;;-6.44;35.83
42887;BME280;29032;56.028;92.904;2023-03-31T20:03:48;101589.00;;;-6.39;36.66
42887;BME280;29032;56.028;92.904;2023-03-31T20:08:51;101597.06;;;-6.58;36.31
42887;BME280;29032;56.028;92.904;2023-03-31T20:13:54;101605.28;;;-6.70;36.50
42887;BME280;29032;56.028;92.904;2023-03-31T20:18:59;101612.06;;;-6.76;35.83
42887;BME280;29032;56.028;92.904;2023-03-31T20:24:02;101616.28;;;-6.95;36.52
42887;BME280;29032;56.028;92.904;2023-03-31T20:29:04;101622.75;;;-6.64;36.67
42887;BME280;29032;56.028;92.904;2023-03-31T20:34:11;101626.59;;;-6.49;35.89
42887;BME280;29032;56.028;92.904;2023-03-31T20:39:14;101624.69;;;-6.65;35.78
42887;BME280;29032;56.028;92.904;2023-03-31T20:44:16;101628.88;;;-6.83;36.48
42887;BME280;29032;56.028;92.904;2023-03-31T20:49:20;101632.72;;;-6.84;37.27
42887;BME280;29032;56.028;92.904;2023-03-31T20:54:42;101630.44;;;-6.82;36.76
42887;BME280;29032;56.028;92.904;2023-03-31T20:59:44;101631.59;;;-6.83;36.86
42887;BME280;29032;56.028;92.904;2023-03-31T21:04:48;101634.38;;;-7.11;37.25
42887;BME280;29032;56.028;92.904;2023-03-31T21:09:50;101633.72;;;-7.36;37.51
42887;BME280;29032;56.028;92.904;2023-03-31T21:14:52;101633.44;;;-7.47;37.94
42887;BME280;29032;56.028;92.904;2023-03-31T21:19:55;101626.34;;;-7.67;38.12
42887;BME280;29032;56.028;92.904;2023-03-31T21:25:17;101640.75;;;-7.75;38.23
42887;BME280;29032;56.028;92.904;2023-03-31T21:30:20;101643.03;;;-7.89;38.26
42887;BME280;29032;56.028;92.904;2023-03-31T21:35:43;101650.22;;;-8.06;39.11
42887;BME280;29032;56.028;92.904;2023-03-31T21:40:46;101666.38;;;-7.81;38.94
42887;BME280;29032;56.028;92.904;2023-03-31T21:45:49;101676.59;;;-7.47;38.58
42887;BME280;29032;56.028;92.904;2023-03-31T21:50:53;101681.09;;;-7.23;38.12
42887;BME280;29032;56.028;92.904;2023-03-31T21:56:15;101689.19;;;-7.23;37.89
42887;BME280;29032;56.028;92.904;2023-03-31T22:01:37;101696.84;;;-7.53;38.57
42887;BME280;29032;56.028;92.904;2023-03-31T22:06:40;101701.69;;;-7.30;38.90
42887;BME280;29032;56.028;92.904;2023-03-31T22:11:42;101701.31;;;-7.57;38.10
42887;BME280;29032;56.028;92.904;2023-03-31T22:16:45;101707.03;;;-7.86;38.42
42887;BME280;29032;56.028;92.904;2023-03-31T22:22:09;101702.69;;;-8.28;39.08
42887;BME280;29032;56.028;92.904;2023-03-31T22:27:31;101712.44;;;-8.35;39.92
42887;BME280;29032;56.028;92.904;2023-03-31T22:32:52;101721.06;;;-8.54;39.74
42887;BME280;29032;56.028;92.904;2023-03-31T22:37:56;101716.00;;;-8.56;39.86
42887;BME280;29032;56.028;92.904;2023-03-31T22:42:58;101725.34;;;-8.53;39.10
42887;BME280;29032;56.028;92.904;2023-03-31T22:48:20;101723.63;;;-8.70;40.01
42887;BME280;29032;56.028;92.904;2023-03-31T22:53:24;101729.59;;;-8.52;39.63
42887;BME280;29032;56.028;92.904;2023-03-31T22:58:26;101737.78;;;-8.61;39.93
42887;BME280;29032;56.028;92.904;2023-03-31T23:03:29;101749.63;;;-8.62;40.04
42887;BME280;29032;56.028;92.904;2023-03-31T23:08:53;101756.53;;;-8.28;39.12
42887;BME280;29032;56.028;92.904;2023-03-31T23:13:55;101746.16;;;-8.62;39.83
42887;BME280;29032;56.028;92.904;2023-03-31T23:18:58;101758.16;;;-8.72;40.43
42887;BME280;29032;56.028;92.904;2023-03-31T23:24:03;101761.97;;;-8.73;40.33
42887;BME280;29032;56.028;92.904;2023-03-31T23:29:06;101765.69;;;-8.65;39.52
42887;BME280;29032;56.028;92.904;2023-03-31T23:34:09;101775.53;;;-8.69;40.04
42887;BME280;29032;56.028;92.904;2023-03-31T23:39:32;101785.50;;;-8.82;40.28
42887;BME280;29032;56.028;92.904;2023-03-31T23:44:34;101802.44;;;-8.82;39.83
42887;BME280;29032;56.028;92.904;2023-03-31T23:49:37;101797.97;;;-8.98;40.52
42887;BME280;29032;56.028;92.904;2023-03-31T23:54:41;101807.47;;;-8.80;40.17
42887;BME280;29032;56.028;92.904;2023-03-31T23:59:44;101808.84;;;-8.74;39.82
